createdAt,value
2023-02-24T00:01:51.296Z,100.73
2023-02-24T00:04:20.572Z,95.07
2023-02-24T00:06:47.741Z,101.43
2023-02-24T00:09:17.968Z,95.78
2023-02-24T00:11:53.692Z,100.57
2023-02-24T00:14:20.359Z,87.55
2023-02-24T00:16:47.913Z,94.40
2023-02-24T00:19:21.307Z,100.43
2023-02-24T00:21:48.004Z,99.35
2023-02-24T00:24:14.491Z,99.65
2023-02-24T00:26:41.660Z,91.63
2023-02-24T00:29:10.594Z,90.10
2023-02-24T00:31:41.868Z,91.65
2023-02-24T00:36:35.765Z,79.32
2023-02-24T00:39:09.511Z,93.90
2023-02-24T00:41:41.175Z,94.47
2023-02-24T00:44:10.204Z,91.55
2023-02-24T00:46:40.233Z,85.13
2023-02-24T00:49:17.060Z,85.63
2023-02-24T00:51:46.323Z,89.25
2023-02-24T00:54:16.106Z,98.05
2023-02-24T00:56:45.264Z,102.95
2023-02-24T00:59:13.071Z,88.88
2023-02-24T01:01:40.781Z,102.43
2023-02-24T01:04:11.588Z,108.82
2023-02-24T01:06:44.429Z,102.15
2023-02-24T01:09:16.358Z,97.35
2023-02-24T01:12:03.856Z,110.28
2023-02-24T01:14:33.365Z,101.53
2023-02-24T01:17:00.187Z,102.75
2023-02-24T01:19:31.450Z,97.97
2023-02-24T01:24:25.985Z,89.95
2023-02-24T01:26:53.201Z,86.85
2023-02-24T01:29:22.572Z,85.43
2023-02-24T01:31:50.531Z,85.75
2023-02-24T01:34:18.638Z,100.88
2023-02-24T01:36:45.208Z,95.57
2023-02-24T01:39:13.559Z,94.32
2023-02-24T01:41:46.092Z,83.97
2023-02-24T01:44:17.239Z,94.88
2023-02-24T01:46:48.773Z,98.10
2023-02-24T01:49:21.925Z,92.68
2023-02-24T01:51:59.095Z,89.75
2023-02-24T01:54:30.513Z,94.25
2023-02-24T01:59:28.845Z,102.88
2023-02-24T02:04:57.193Z,92.78
2023-02-24T02:07:26.527Z,99.13
2023-02-24T02:09:55.772Z,111.10
2023-02-24T02:12:24.260Z,87.88
2023-02-24T02:14:54.437Z,93.53
2023-02-24T02:17:20.795Z,96.60
2023-02-24T02:20:27.665Z,89.55
2023-02-24T02:23:24.640Z,97.43
2023-02-24T02:26:10.806Z,103.40
2023-02-24T02:28:56.938Z,100.15
2023-02-24T02:31:41.772Z,93.70
2023-02-24T02:34:29.247Z,92.43
2023-02-24T02:37:12.087Z,100.00
2023-02-24T02:40:08.984Z,95.55
2023-02-24T02:42:45.852Z,107.50
2023-02-24T02:45:49.747Z,97.50
2023-02-24T02:48:28.152Z,94.13
2023-02-24T02:51:04.141Z,112.85
2023-02-24T02:53:39.066Z,101.03
2023-02-24T02:56:12.790Z,97.32
2023-02-24T02:58:46.135Z,95.63
2023-02-24T03:01:16.555Z,95.22
2023-02-24T03:03:49.211Z,103.55
2023-02-24T03:06:29.526Z,102.47
2023-02-24T03:09:01.084Z,97.35
2023-02-24T03:11:28.549Z,99.22
2023-02-24T03:13:57.628Z,98.30
2023-02-24T03:16:26.578Z,109.13
2023-02-24T03:19:02.397Z,114.45
2023-02-24T03:21:34.457Z,121.53
2023-02-24T03:24:02.771Z,101.90
2023-02-24T03:26:51.959Z,98.97
2023-02-24T03:29:24.381Z,103.15
2023-02-24T03:31:59.404Z,96.25
2023-02-24T03:34:46.526Z,101.75
2023-02-24T03:37:13.153Z,102.72
2023-02-24T03:39:39.935Z,110.05
2023-02-24T03:42:16.882Z,106.88
2023-02-24T03:44:45.408Z,101.13
2023-02-24T03:47:13.690Z,89.70
2023-02-24T03:49:43.624Z,93.65
2023-02-24T03:52:13.842Z,98.55
2023-02-24T03:55:06.834Z,95.60
2023-02-24T03:57:54.779Z,93.05
2023-02-24T04:00:34.074Z,105.88
2023-02-24T04:03:25.504Z,115.55
2023-02-24T04:06:20.065Z,104.60
2023-02-24T04:09:01.447Z,110.65
2023-02-24T04:11:37.428Z,123.22
2023-02-24T04:14:10.047Z,113.15
2023-02-24T04:16:51.143Z,112.53
2023-02-24T04:19:22.723Z,108.60
2023-02-24T04:21:50.586Z,110.30
2023-02-24T04:24:22.001Z,97.78
2023-02-24T04:29:21.077Z,124.82
2023-02-24T04:32:02.461Z,119.38
2023-02-24T04:37:02.175Z,119.53
2023-02-24T04:39:29.892Z,104.75
2023-02-24T04:41:57.947Z,113.25
2023-02-24T04:44:25.856Z,111.72
2023-02-24T04:46:52.269Z,114.32
2023-02-24T04:49:20.257Z,128.02
2023-02-24T04:51:46.872Z,114.68
2023-02-24T04:54:17.381Z,104.30
2023-02-24T04:56:50.569Z,101.47
2023-02-24T04:59:21.949Z,102.93
2023-02-24T05:01:53.010Z,101.25
2023-02-24T05:04:19.837Z,94.43
2023-02-24T05:06:46.522Z,98.68
2023-02-24T05:09:16.903Z,92.03
2023-02-24T05:11:45.554Z,87.63
2023-02-24T05:14:16.518Z,99.95
2023-02-24T05:16:44.100Z,95.95
2023-02-24T05:19:30.556Z,86.25
2023-02-24T05:21:59.656Z,104.85
2023-02-24T05:24:29.426Z,93.68
2023-02-24T05:26:59.815Z,90.72
2023-02-24T05:29:28.445Z,97.97
2023-02-24T05:31:59.792Z,109.28
2023-02-24T05:36:54.167Z,108.05
2023-02-24T05:39:21.238Z,110.35
2023-02-24T05:41:49.445Z,112.22
2023-02-24T05:44:23.337Z,108.10
2023-02-24T05:46:56.569Z,102.90
2023-02-24T05:49:27.066Z,115.75
2023-02-24T05:51:56.529Z,112.68
2023-02-24T05:54:31.370Z,110.30
2023-02-24T05:57:08.388Z,109.35
2023-02-24T05:59:35.352Z,101.15
2023-02-24T06:02:06.933Z,104.15
2023-02-24T06:04:41.002Z,107.47
2023-02-24T06:07:19.093Z,88.38
2023-02-24T06:09:49.935Z,94.07
2023-02-24T06:12:18.388Z,114.25
2023-02-24T06:14:47.853Z,112.43
2023-02-24T06:17:16.998Z,98.03
2023-02-24T06:19:44.483Z,101.93
2023-02-24T06:22:15.793Z,110.13
2023-02-24T06:24:45.093Z,98.57
2023-02-24T06:27:17.607Z,117.70
2023-02-24T06:29:52.582Z,107.28
2023-02-24T06:32:21.405Z,103.00
2023-02-24T06:34:47.929Z,101.20
2023-02-24T06:37:15.683Z,109.00
2023-02-24T06:39:43.147Z,102.18
2023-02-24T06:42:11.868Z,101.50
2023-02-24T06:44:40.962Z,119.43
2023-02-24T06:47:10.822Z,115.32
2023-02-24T06:49:37.595Z,111.38
2023-02-24T06:52:04.683Z,105.97
2023-02-24T06:54:32.652Z,93.97
2023-02-24T06:56:59.478Z,105.15
2023-02-24T06:59:29.286Z,101.95
2023-02-24T07:01:58.183Z,121.95
2023-02-24T07:04:28.162Z,132.43
2023-02-24T07:06:57.516Z,111.13
2023-02-24T07:09:27.030Z,101.88
2023-02-24T07:11:56.031Z,112.90
2023-02-24T07:14:37.191Z,117.18
2023-02-24T07:17:05.790Z,115.53
2023-02-24T07:19:32.713Z,139.82
2023-02-24T07:22:03.652Z,123.07
2023-02-24T07:24:36.863Z,129.32
2023-02-24T07:27:10.652Z,118.25
2023-02-24T07:29:37.798Z,115.22
2023-02-24T07:32:06.818Z,130.20
2023-02-24T07:34:33.849Z,120.22
2023-02-24T07:37:07.760Z,132.45
2023-02-24T07:39:36.769Z,139.80
2023-02-24T07:42:03.355Z,139.63
2023-02-24T07:44:30.144Z,131.63
2023-02-24T07:47:12.835Z,140.55
2023-02-24T07:49:40.959Z,146.30
2023-02-24T07:52:08.261Z,149.98
2023-02-24T07:54:35.250Z,135.63
2023-02-24T07:57:01.814Z,144.57
2023-02-24T07:59:30.944Z,143.68
2023-02-24T08:01:57.810Z,151.80
2023-02-24T08:04:28.467Z,152.93
2023-02-24T08:07:02.604Z,155.20
2023-02-24T08:10:06.992Z,161.85
2023-02-24T08:12:35.076Z,152.73
2023-02-24T08:15:08.784Z,142.95
2023-02-24T08:17:35.318Z,153.43
2023-02-24T08:20:13.432Z,157.95
2023-02-24T08:22:44.074Z,157.77
2023-02-24T08:25:18.195Z,136.63
2023-02-24T08:28:08.989Z,144.02
2023-02-24T08:30:40.782Z,144.65
2023-02-24T08:33:13.305Z,146.45
2023-02-24T08:35:44.382Z,138.80
2023-02-24T08:40:51.769Z,154.90
2023-02-24T08:43:37.216Z,193.43
2023-02-24T08:46:26.169Z,151.30
2023-02-24T08:49:00.665Z,137.52
2023-02-24T08:51:31.107Z,166.07
2023-02-24T08:54:00.281Z,180.85
2023-02-24T08:56:30.095Z,155.75
2023-02-24T08:59:05.154Z,146.43
2023-02-24T09:01:37.974Z,159.02
2023-02-24T09:04:11.114Z,164.63
2023-02-24T09:06:45.882Z,145.50
2023-02-24T09:09:18.471Z,145.85
2023-02-24T09:11:46.592Z,155.25
2023-02-24T09:14:26.076Z,164.13
2023-02-24T09:17:02.568Z,172.15
2023-02-24T09:19:40.971Z,168.25
2023-02-24T09:22:21.094Z,188.52
2023-02-24T09:24:50.955Z,188.68
2023-02-24T09:27:17.598Z,177.77
2023-02-24T09:29:49.304Z,178.23
2023-02-24T09:32:16.294Z,157.80
2023-02-24T09:34:44.086Z,152.30
2023-02-24T09:37:25.021Z,150.73
2023-02-24T09:39:55.838Z,146.20
2023-02-24T09:42:46.250Z,159.65
2023-02-24T09:45:32.859Z,158.93
2023-02-24T09:48:16.919Z,140.18
2023-02-24T09:51:03.807Z,162.20
2023-02-24T09:53:41.324Z,170.02
2023-02-24T09:56:16.023Z,151.88
2023-02-24T09:58:49.833Z,139.20
2023-02-24T10:01:31.215Z,144.95
2023-02-24T10:04:21.084Z,132.38
2023-02-24T10:06:58.827Z,134.35
2023-02-24T10:09:49.807Z,120.80
2023-02-24T10:12:17.132Z,124.97
2023-02-24T10:15:32.373Z,130.30
2023-02-24T10:18:19.963Z,121.18
2023-02-24T10:20:49.402Z,128.60
2023-02-24T10:23:32.728Z,123.55
2023-02-24T10:26:22.008Z,138.48
2023-02-24T10:29:02.659Z,137.07
2023-02-24T10:31:57.829Z,127.03
2023-02-24T10:34:31.758Z,128.20
2023-02-24T10:37:26.086Z,121.25
2023-02-24T10:40:00.117Z,130.80
2023-02-24T10:42:31.714Z,128.70
2023-02-24T10:45:21.136Z,111.00
2023-02-24T10:47:59.633Z,116.40
2023-02-24T10:50:32.322Z,128.50
2023-02-24T10:53:07.050Z,117.32
2023-02-24T10:55:39.373Z,131.30
2023-02-24T10:58:07.337Z,130.93
2023-02-24T11:00:53.868Z,117.72
2023-02-24T11:03:36.018Z,115.88
2023-02-24T11:06:03.349Z,112.13
2023-02-24T11:08:44.229Z,123.20
2023-02-24T11:11:25.788Z,124.28
2023-02-24T11:14:12.590Z,128.77
2023-02-24T11:17:11.868Z,112.53
2023-02-24T11:19:47.280Z,114.63
2023-02-24T11:22:17.594Z,124.18
2023-02-24T11:24:46.304Z,122.65
2023-02-24T11:27:15.332Z,107.32
2023-02-24T11:30:06.438Z,93.47
2023-02-24T11:32:47.876Z,105.18
2023-02-24T11:38:31.891Z,96.10
2023-02-24T11:41:09.446Z,97.45
2023-02-24T11:43:43.203Z,79.10
2023-02-24T11:46:17.803Z,91.45
2023-02-24T11:48:51.876Z,91.80
2023-02-24T11:51:24.122Z,106.15
2023-02-24T11:53:55.959Z,96.97
2023-02-24T11:56:38.180Z,94.88
2023-02-24T11:59:20.179Z,96.32
2023-02-24T12:01:55.623Z,87.35
2023-02-24T12:04:37.858Z,91.35
2023-02-24T12:07:15.306Z,89.10
2023-02-24T12:09:50.207Z,93.03
2023-02-24T12:12:37.649Z,87.03
2023-02-24T12:15:13.816Z,94.55
2023-02-24T12:17:58.997Z,88.53
2023-02-24T12:20:41.524Z,90.28
2023-02-24T12:23:25.691Z,83.30
2023-02-24T12:26:24.102Z,92.07
2023-02-24T12:29:16.178Z,91.50
2023-02-24T12:32:11.800Z,93.53
2023-02-24T12:34:57.265Z,90.40
2023-02-24T12:37:45.190Z,85.28
2023-02-24T12:40:11.692Z,85.78
2023-02-24T12:42:44.095Z,84.38
2023-02-24T12:45:18.728Z,82.28
2023-02-24T12:48:03.622Z,83.90
2023-02-24T12:50:42.128Z,80.78
2023-02-24T12:53:23.353Z,88.32
2023-02-24T12:56:03.553Z,88.15
2023-02-24T12:58:37.612Z,75.55
2023-02-24T13:01:04.280Z,81.97
2023-02-24T13:03:40.680Z,81.38
2023-02-24T13:06:37.923Z,71.75
2023-02-24T13:09:43.232Z,76.32
2023-02-24T13:12:23.777Z,72.05
2023-02-24T13:14:51.262Z,69.00
2023-02-24T13:17:24.322Z,65.38
2023-02-24T13:19:52.569Z,77.70
2023-02-24T13:22:19.406Z,88.10
2023-02-24T13:24:54.618Z,93.57
2023-02-24T13:27:24.961Z,60.88
2023-02-24T13:29:57.488Z,66.45
2023-02-24T13:32:27.479Z,76.30
2023-02-24T13:34:54.920Z,68.10
2023-02-24T13:37:39.103Z,70.05
2023-02-24T13:40:24.029Z,74.47
2023-02-24T13:42:58.309Z,63.00
2023-02-24T13:45:27.535Z,60.90
2023-02-24T13:48:31.982Z,61.00
2023-02-24T13:51:16.894Z,81.85
2023-02-24T13:54:22.970Z,67.75
2023-02-24T13:57:07.479Z,72.22
2023-02-24T13:59:50.879Z,74.35
2023-02-24T14:02:21.415Z,73.85
2023-02-24T14:04:54.754Z,61.75
2023-02-24T14:07:27.628Z,77.75
2023-02-24T14:09:58.009Z,65.57
2023-02-24T14:12:31.180Z,65.83
2023-02-24T14:14:57.970Z,63.03
2023-02-24T14:17:28.605Z,72.07
2023-02-24T14:20:19.340Z,77.60
2023-02-24T14:22:48.612Z,92.18
2023-02-24T14:25:16.873Z,78.88
2023-02-24T14:27:45.638Z,70.10
2023-02-24T14:30:23.635Z,65.93
2023-02-24T14:32:50.463Z,68.28
2023-02-24T14:35:27.668Z,63.28
2023-02-24T14:37:54.301Z,65.85
2023-02-24T14:40:25.521Z,72.60
2023-02-24T14:45:26.949Z,61.13
2023-02-24T14:47:55.887Z,68.93
2023-02-24T14:50:30.578Z,65.45
2023-02-24T14:53:03.009Z,72.60
2023-02-24T14:55:35.322Z,71.25
2023-02-24T14:58:09.323Z,69.00
2023-02-24T15:00:41.798Z,60.10
2023-02-24T15:03:19.465Z,61.00
2023-02-24T15:05:50.443Z,59.15
2023-02-24T15:08:33.358Z,63.38
2023-02-24T15:11:00.526Z,62.78
2023-02-24T15:13:41.840Z,70.53
2023-02-24T15:18:55.507Z,63.20
2023-02-24T15:21:32.896Z,54.92
2023-02-24T15:24:20.816Z,59.30
2023-02-24T15:27:02.722Z,53.63
2023-02-24T15:29:31.543Z,53.22
2023-02-24T15:32:00.746Z,56.90
2023-02-24T15:34:31.048Z,61.50
2023-02-24T15:37:03.159Z,54.88
2023-02-24T15:39:32.275Z,59.63
2023-02-24T15:42:20.687Z,56.50
2023-02-24T15:44:58.301Z,59.65
2023-02-24T15:47:31.611Z,51.42
2023-02-24T15:49:59.308Z,50.30
2023-02-24T15:52:28.210Z,57.65
2023-02-24T15:54:56.683Z,48.85
2023-02-24T15:57:23.481Z,64.97
2023-02-24T15:59:50.009Z,78.07
2023-02-24T16:02:20.155Z,56.55
2023-02-24T16:04:48.458Z,58.00
2023-02-24T16:07:19.438Z,59.88
2023-02-24T16:09:48.829Z,58.08
2023-02-24T16:12:21.776Z,64.00
2023-02-24T16:14:50.442Z,52.53
2023-02-24T16:17:35.096Z,59.65
2023-02-24T16:20:08.381Z,57.30
2023-02-24T16:22:35.800Z,56.70
2023-02-24T16:25:03.277Z,57.45
2023-02-24T16:27:30.609Z,55.13
2023-02-24T16:29:58.432Z,62.38
2023-02-24T16:32:27.077Z,52.72
2023-02-24T16:34:53.989Z,61.95
2023-02-24T16:37:23.453Z,55.95
2023-02-24T16:39:50.818Z,51.15
2023-02-24T16:42:18.922Z,61.97
2023-02-24T16:44:49.000Z,58.08
2023-02-24T16:47:20.448Z,57.30
2023-02-24T16:49:47.138Z,47.00
2023-02-24T16:52:13.970Z,48.00
2023-02-24T16:54:41.436Z,45.28
2023-02-24T16:57:07.997Z,52.88
2023-02-24T16:59:34.540Z,53.10
2023-02-24T17:02:02.225Z,51.70
2023-02-24T17:04:29.380Z,51.53
2023-02-24T17:06:55.999Z,48.85
2023-02-24T17:09:22.746Z,59.35
2023-02-24T17:11:49.306Z,52.40
2023-02-24T17:14:20.868Z,53.90
2023-02-24T17:16:47.898Z,52.25
2023-02-24T17:19:14.624Z,56.05
2023-02-24T17:21:45.161Z,59.35
2023-02-24T17:24:17.348Z,49.92
2023-02-24T17:26:44.325Z,48.95
2023-02-24T17:29:12.108Z,48.35
2023-02-24T17:31:39.081Z,52.63
2023-02-24T17:34:06.447Z,45.40
2023-02-24T17:36:32.970Z,50.47
2023-02-24T17:38:59.459Z,59.25
2023-02-24T17:41:26.011Z,57.63
2023-02-24T17:43:53.535Z,63.75
2023-02-24T17:46:20.814Z,58.25
2023-02-24T17:48:47.714Z,64.72
2023-02-24T17:51:19.123Z,53.67
2023-02-24T17:53:45.785Z,58.67
2023-02-24T17:56:12.298Z,58.03
2023-02-24T17:58:40.664Z,58.67
2023-02-24T18:01:07.537Z,57.63
2023-02-24T18:03:37.382Z,59.85
2023-02-24T18:06:12.791Z,64.70
2023-02-24T18:08:40.479Z,59.38
2023-02-24T18:11:08.165Z,62.40
2023-02-24T18:13:34.782Z,66.03
2023-02-24T18:16:01.867Z,56.97
2023-02-24T18:18:30.219Z,58.30
2023-02-24T18:21:01.893Z,59.83
2023-02-24T18:23:28.704Z,63.40
2023-02-24T18:25:55.191Z,57.72
2023-02-24T18:28:21.596Z,55.92
2023-02-24T18:30:48.100Z,60.60
2023-02-24T18:33:14.620Z,70.03
2023-02-24T18:35:41.171Z,63.13
2023-02-24T18:38:07.574Z,63.58
2023-02-24T18:40:34.118Z,58.03
2023-02-24T18:43:00.571Z,54.00
2023-02-24T18:45:26.963Z,63.42
2023-02-24T18:47:53.486Z,56.25
2023-02-24T18:50:24.845Z,59.22
2023-02-24T18:55:18.094Z,53.10
2023-02-24T18:57:45.259Z,54.95
2023-02-24T19:00:14.092Z,61.58
2023-02-24T19:02:40.849Z,57.40
2023-02-24T19:05:08.018Z,52.90
2023-02-24T19:07:34.421Z,65.32
2023-02-24T19:10:00.827Z,65.50
2023-02-24T19:12:27.377Z,52.35
2023-02-24T19:14:53.812Z,61.60
2023-02-24T19:17:20.426Z,56.15
2023-02-24T19:19:46.978Z,64.32
2023-02-24T19:22:13.504Z,65.25
2023-02-24T19:24:42.121Z,54.65
2023-02-24T19:27:09.259Z,58.65
2023-02-24T19:29:35.724Z,57.47
2023-02-24T19:32:02.406Z,62.70
2023-02-24T19:34:28.914Z,56.03
2023-02-24T19:36:55.406Z,60.30
2023-02-24T19:39:21.844Z,65.15
2023-02-24T19:41:49.764Z,62.63
2023-02-24T19:44:16.957Z,58.97
2023-02-24T19:46:43.485Z,63.40
2023-02-24T19:49:10.094Z,67.70
2023-02-24T19:51:36.701Z,61.67
2023-02-24T19:54:06.053Z,66.72
2023-02-24T19:56:35.689Z,68.55
2023-02-24T19:59:03.427Z,58.70
2023-02-24T20:01:30.831Z,76.07
2023-02-24T20:03:59.657Z,82.38
2023-02-24T20:06:35.771Z,79.20
2023-02-24T20:09:05.636Z,76.13
2023-02-24T20:11:34.959Z,74.88
2023-02-24T20:14:01.378Z,73.20
2023-02-24T20:16:32.404Z,70.90
2023-02-24T20:18:59.984Z,69.85
2023-02-24T20:21:26.485Z,71.40
2023-02-24T20:23:53.240Z,81.95
2023-02-24T20:26:20.799Z,77.55
2023-02-24T20:28:47.709Z,75.20
2023-02-24T20:31:18.382Z,67.25
2023-02-24T20:33:46.452Z,77.90
2023-02-24T20:36:20.026Z,66.15
2023-02-24T20:38:46.825Z,75.80
2023-02-24T20:41:13.356Z,76.82
2023-02-24T20:43:39.888Z,74.50
2023-02-24T20:46:12.530Z,84.68
2023-02-24T20:48:38.961Z,75.05
2023-02-24T20:51:06.593Z,121.78
2023-02-24T20:53:35.331Z,78.47
2023-02-24T20:58:34.109Z,119.47
2023-02-24T21:01:00.557Z,147.48
2023-02-24T21:03:27.000Z,94.50
2023-02-24T21:06:01.556Z,79.15
2023-02-24T21:08:34.345Z,67.35
2023-02-24T21:11:00.849Z,72.03
2023-02-24T21:13:27.288Z,69.82
2023-02-24T21:15:55.238Z,68.47
2023-02-24T21:18:23.121Z,64.00
2023-02-24T21:20:53.914Z,74.10
2023-02-24T21:23:21.517Z,66.00
2023-02-24T21:25:54.040Z,66.03
2023-02-24T21:28:21.415Z,63.97
2023-02-24T21:30:48.559Z,73.47
2023-02-24T21:33:16.136Z,66.85
2023-02-24T21:35:42.608Z,71.38
2023-02-24T21:38:09.591Z,68.47
2023-02-24T21:40:36.979Z,73.57
2023-02-24T21:43:04.036Z,71.32
2023-02-24T21:45:30.469Z,80.47
2023-02-24T21:47:56.912Z,83.53
2023-02-24T21:50:23.664Z,84.50
2023-02-24T21:52:50.148Z,66.53
2023-02-24T21:55:16.811Z,71.63
2023-02-24T21:57:47.913Z,69.75
2023-02-24T22:00:19.938Z,71.10
2023-02-24T22:02:54.285Z,69.03
2023-02-24T22:05:23.210Z,64.55
2023-02-24T22:07:50.743Z,70.50
2023-02-24T22:10:20.437Z,55.17
2023-02-24T22:12:47.293Z,80.32
2023-02-24T22:15:14.071Z,69.05
2023-02-24T22:17:41.098Z,64.50
2023-02-24T22:20:10.813Z,71.93
2023-02-24T22:22:39.027Z,64.80
2023-02-24T22:25:06.480Z,67.53
2023-02-24T22:27:33.524Z,80.30
2023-02-24T22:29:59.964Z,74.38
2023-02-24T22:32:28.294Z,71.38
2023-02-24T22:34:55.784Z,74.70
2023-02-24T22:37:22.280Z,71.10
2023-02-24T22:39:48.818Z,70.88
2023-02-24T22:42:15.243Z,69.53
2023-02-24T22:44:41.674Z,70.57
2023-02-24T22:47:08.311Z,78.88
2023-02-24T22:49:34.979Z,76.82
2023-02-24T22:52:01.528Z,73.68
2023-02-24T22:54:27.940Z,80.28
2023-02-24T22:56:56.140Z,82.63
2023-02-24T22:59:22.735Z,84.05
2023-02-24T23:01:49.196Z,73.25
2023-02-24T23:04:17.069Z,75.80
2023-02-24T23:06:44.501Z,85.18
2023-02-24T23:09:11.360Z,80.07
2023-02-24T23:11:43.503Z,78.55
2023-02-24T23:14:16.381Z,73.75
2023-02-24T23:16:44.783Z,74.78
2023-02-24T23:19:15.986Z,73.00
2023-02-24T23:21:46.535Z,78.55
2023-02-24T23:24:14.751Z,82.43
2023-02-24T23:26:51.373Z,82.15
2023-02-24T23:29:18.919Z,78.78
2023-02-24T23:31:46.097Z,78.70
2023-02-24T23:34:13.090Z,79.32
2023-02-24T23:36:43.570Z,73.10
2023-02-24T23:39:13.092Z,77.70
2023-02-24T23:41:41.289Z,79.05
2023-02-24T23:44:07.856Z,77.85
2023-02-24T23:46:35.965Z,72.97
2023-02-24T23:49:02.567Z,75.25
2023-02-24T23:51:38.770Z,85.95
2023-02-24T23:54:12.947Z,75.40
2023-02-24T23:56:39.765Z,84.05
2023-02-24T23:59:07.072Z,80.93
